20°C Temp
17°C Dewpoint
% Humidity
Temperature
23 KM/H
14 MPH
12 KTS
160°
South South
East

Wind Speed
Volcanic Ash
Conditions
Pressure 1008.92 (hPa) - 29.79 (in)
Visibility 6.2 (mi) - 10.0 (km)

Current Conditions
YWLM
Location 18(km)
Metar :YWLM 160700Z 16012KT 9999 BKN012 BKN120 20/17 Q1009 USE TAF FOR ARRIVALS AFTER 0900Z FM0720 14010KT 9999 SCT012 BKN120
Wed 16th October 18:00 pm

Airport
  Metar Aviation API Data Provided by https://www.checkwx.com/ PHP scripts by weather34.com ©2019